createdAt,value
2018-06-28T00:01:49.155Z,94405.80
2018-06-28T00:04:18.609Z,94400.80
2018-06-28T00:06:47.823Z,94399.11
2018-06-28T00:09:17.407Z,94390.06
2018-06-28T00:11:46.946Z,94398.05
2018-06-28T00:14:17.159Z,94391.40
2018-06-28T00:16:46.869Z,94396.33
2018-06-28T00:19:17.150Z,94390.57
2018-06-28T00:21:46.486Z,94394.48
2018-06-28T00:24:15.792Z,94391.37
2018-06-28T00:26:45.099Z,94388.12
2018-06-28T00:29:14.343Z,94387.69
2018-06-28T00:31:45.705Z,94388.70
2018-06-28T00:34:15.076Z,94378.73
2018-06-28T00:36:44.809Z,94372.44
2018-06-28T00:39:15.108Z,94365.89
2018-06-28T00:41:45.866Z,94362.13
2018-06-28T00:44:15.317Z,94367.70
2018-06-28T00:46:44.632Z,94367.30
2018-06-28T00:49:14.272Z,94354.27
2018-06-28T00:51:44.672Z,94349.91
2018-06-28T00:54:14.043Z,94348.48
2018-06-28T00:56:43.303Z,94352.47
2018-06-28T00:59:12.882Z,94344.87
2018-06-28T01:01:42.131Z,94341.83
2018-06-28T01:04:12.293Z,94333.57
2018-06-28T01:06:41.715Z,94333.50
2018-06-28T01:09:13.492Z,94330.90
2018-06-28T01:11:43.444Z,94308.75
2018-06-28T01:14:12.769Z,94328.08
2018-06-28T01:16:42.153Z,94329.82
2018-06-28T01:19:11.609Z,94323.59
2018-06-28T01:21:41.019Z,94320.42
2018-06-28T01:24:11.261Z,94318.55
2018-06-28T01:26:41.855Z,94315.27
2018-06-28T01:29:11.070Z,94306.09
2018-06-28T01:31:41.213Z,94303.48
2018-06-28T01:34:10.659Z,94305.88
2018-06-28T01:36:40.616Z,94310.92
2018-06-28T01:39:11.810Z,94306.80
2018-06-28T01:43:56.554Z,94303.11
2018-06-28T01:46:26.641Z,94296.03
2018-06-28T01:48:56.796Z,94293.64
2018-06-28T01:51:25.984Z,94282.44
2018-06-28T01:53:56.264Z,94286.69
2018-06-28T01:56:25.513Z,94283.67
2018-06-28T01:58:55.651Z,94273.38
2018-06-28T02:01:24.902Z,94273.67
2018-06-28T02:03:54.314Z,94267.25
2018-06-28T02:06:24.428Z,94263.56
2018-06-28T02:08:53.684Z,94260.64
2018-06-28T02:11:23.906Z,94258.26
2018-06-28T02:13:55.630Z,94260.86
2018-06-28T02:16:25.073Z,94258.98
2018-06-28T02:18:55.590Z,94257.41
2018-06-28T02:21:25.005Z,94252.86
2018-06-28T02:23:54.396Z,94252.64
2018-06-28T02:26:23.729Z,94245.11
2018-06-28T02:28:53.216Z,94237.72
2018-06-28T02:31:22.513Z,94237.81
2018-06-28T02:33:52.123Z,94230.41
2018-06-28T02:36:21.501Z,94223.11
2018-06-28T02:38:50.850Z,94227.87
2018-06-28T02:41:20.334Z,94228.19
2018-06-28T02:43:49.735Z,94230.13
2018-06-28T02:46:19.110Z,94219.14
2018-06-28T02:48:48.459Z,94217.39
2018-06-28T02:51:17.828Z,94215.30
2018-06-28T02:53:48.395Z,94211.96
2018-06-28T02:56:19.084Z,94209.23
2018-06-28T02:58:48.514Z,94211.17
2018-06-28T03:01:18.465Z,94218.28
2018-06-28T03:03:49.142Z,94214.38
2018-06-28T03:06:18.567Z,94208.43
2018-06-28T03:08:47.931Z,94209.64
2018-06-28T03:11:18.397Z,94205.98
2018-06-28T03:13:49.846Z,94212.19
2018-06-28T03:16:19.512Z,94208.59
2018-06-28T03:18:49.741Z,94208.95
2018-06-28T03:21:19.051Z,94215.07
2018-06-28T03:23:48.450Z,94212.28
2018-06-28T03:26:18.147Z,94207.41
2018-06-28T03:28:47.613Z,94202.49
2018-06-28T03:31:17.728Z,94201.47
2018-06-28T03:33:47.189Z,94203.64
2018-06-28T03:36:16.556Z,94202.16
2018-06-28T03:38:45.984Z,94201.93
2018-06-28T03:41:15.336Z,94204.47
2018-06-28T03:43:46.731Z,94191.51
2018-06-28T03:46:15.981Z,94191.73
2018-06-28T03:48:46.191Z,94189.70
2018-06-28T03:51:16.760Z,94190.05
2018-06-28T03:53:46.747Z,94192.43
2018-06-28T03:56:16.852Z,94188.41
2018-06-28T03:58:46.268Z,94182.62
2018-06-28T04:01:15.603Z,94178.78
2018-06-28T04:03:45.974Z,94182.52
2018-06-28T04:06:18.321Z,94186.45
2018-06-28T04:08:47.858Z,94191.86
2018-06-28T04:11:19.438Z,94186.97
2018-06-28T04:13:48.846Z,94178.27
2018-06-28T04:16:18.341Z,94177.48
2018-06-28T04:18:48.177Z,94180.66
2018-06-28T04:21:18.626Z,94171.48
2018-06-28T04:23:48.182Z,94168.08
2018-06-28T04:26:18.268Z,94179.86
2018-06-28T04:28:48.253Z,94166.91
2018-06-28T04:31:17.637Z,94169.79
2018-06-28T04:33:49.255Z,94170.89
2018-06-28T04:36:18.938Z,94154.67
2018-06-28T04:38:48.363Z,94160.59
2018-06-28T04:41:18.723Z,94142.94
2018-06-28T04:43:48.405Z,94145.59
2018-06-28T04:46:17.846Z,94134.39
2018-06-28T04:48:47.410Z,94137.89
2018-06-28T04:51:17.553Z,94141.34
2018-06-28T04:53:47.693Z,94146.33
2018-06-28T04:56:17.204Z,94142.77
2018-06-28T04:58:46.480Z,94147.35
2018-06-28T05:01:15.845Z,94144.97
2018-06-28T05:03:45.217Z,94141.18
2018-06-28T05:06:14.609Z,94139.40
2018-06-28T05:08:43.890Z,94143.88
2018-06-28T05:11:13.217Z,94138.83
2018-06-28T05:13:43.546Z,94124.95
2018-06-28T05:16:13.657Z,94124.62
2018-06-28T05:18:46.990Z,94129.09
2018-06-28T05:21:16.494Z,94129.80
2018-06-28T05:23:45.923Z,94136.91
2018-06-28T05:26:15.352Z,94133.51
2018-06-28T05:28:44.952Z,94131.64
2018-06-28T05:31:16.028Z,94133.05
2018-06-28T05:33:46.535Z,94139.80
2018-06-28T05:36:15.881Z,94145.57
2018-06-28T05:38:46.140Z,94139.63
2018-06-28T05:41:15.572Z,94137.92
2018-06-28T05:43:45.873Z,94136.68
2018-06-28T05:46:15.458Z,94133.08
2018-06-28T05:48:45.667Z,94133.00
2018-06-28T05:51:14.888Z,94134.58
2018-06-28T05:53:44.281Z,94139.47
2018-06-28T05:56:13.687Z,94138.45
2018-06-28T05:58:43.114Z,94141.00
2018-06-28T06:01:12.529Z,94133.36
2018-06-28T06:03:42.088Z,94128.64
2018-06-28T06:06:11.377Z,94132.39
2018-06-28T06:08:41.910Z,94132.45
2018-06-28T06:11:11.339Z,94133.30
2018-06-28T06:13:40.778Z,94131.43
2018-06-28T06:16:10.143Z,94137.44
2018-06-28T06:18:39.470Z,94130.58
2018-06-28T06:21:08.864Z,94133.47
2018-06-28T06:23:38.307Z,94132.45
2018-06-28T06:26:09.447Z,94137.66
2018-06-28T06:28:38.699Z,94136.92
2018-06-28T06:31:08.975Z,94133.58
2018-06-28T06:33:39.238Z,94132.66
2018-06-28T06:36:09.709Z,94124.87
2018-06-28T06:38:39.034Z,94121.47
2018-06-28T06:41:08.408Z,94122.55
2018-06-28T06:43:38.872Z,94126.56
2018-06-28T06:46:08.428Z,94124.18
2018-06-28T06:48:37.845Z,94132.00
2018-06-28T06:51:07.238Z,94122.93
2018-06-28T06:53:37.480Z,94120.89
2018-06-28T06:56:06.990Z,94117.31
2018-06-28T06:58:36.764Z,94115.34
2018-06-28T07:01:06.155Z,94124.52
2018-06-28T07:03:36.137Z,94121.62
2018-06-28T07:06:06.527Z,94114.75
2018-06-28T07:08:36.001Z,94115.11
2018-06-28T07:11:06.316Z,94110.50
2018-06-28T07:13:35.603Z,94114.92
2018-06-28T07:16:06.025Z,94104.91
2018-06-28T07:18:35.541Z,94100.81
2018-06-28T07:21:05.123Z,94105.05
2018-06-28T07:23:35.166Z,94101.42
2018-06-28T07:26:04.582Z,94100.07
2018-06-28T07:28:34.071Z,94090.71
2018-06-28T07:31:04.352Z,94080.67
2018-06-28T07:33:34.300Z,94089.95
2018-06-28T07:36:04.038Z,94089.45
2018-06-28T07:38:34.118Z,94085.31
2018-06-28T07:41:03.487Z,94066.59
2018-06-28T07:43:33.771Z,94074.34
2018-06-28T07:46:04.100Z,94065.82
2018-06-28T07:48:33.576Z,94062.08
2018-06-28T07:51:03.799Z,94055.75
2018-06-28T07:53:33.075Z,94051.27
2018-06-28T07:56:02.193Z,94043.97
2018-06-28T07:58:31.702Z,94042.20
2018-06-28T08:01:04.301Z,94028.18
2018-06-28T08:03:34.735Z,94016.49
2018-06-28T08:06:03.703Z,94018.43
2018-06-28T08:08:32.851Z,94030.80
2018-06-28T08:11:03.369Z,94014.23
2018-06-28T08:13:32.458Z,94019.03
2018-06-28T08:16:01.976Z,94022.39
2018-06-28T08:18:32.126Z,94013.38
2018-06-28T08:21:01.141Z,94007.35
2018-06-28T08:23:30.921Z,94007.13
2018-06-28T08:26:01.021Z,94006.39
2018-06-28T08:28:31.766Z,94008.06
2018-06-28T08:31:00.830Z,94006.20
2018-06-28T08:33:29.869Z,94006.91
2018-06-28T08:35:59.320Z,93997.03
2018-06-28T08:38:29.691Z,93995.21
2018-06-28T08:40:59.993Z,93991.86
2018-06-28T08:43:30.864Z,93979.99
2018-06-28T08:46:00.236Z,93985.25
2018-06-28T08:48:31.469Z,93980.22
2018-06-28T08:51:01.913Z,93991.72
2018-06-28T08:53:32.698Z,93990.28
2018-06-28T08:56:02.398Z,93993.40
2018-06-28T08:58:32.691Z,93979.33
2018-06-28T09:01:02.011Z,93975.23
2018-06-28T09:03:32.411Z,93988.55
2018-06-28T09:06:01.479Z,93989.34
2018-06-28T09:08:32.109Z,93983.70
2018-06-28T09:11:04.909Z,93993.30
2018-06-28T09:13:34.608Z,93985.98
2018-06-28T09:16:04.302Z,93977.88
2018-06-28T09:18:33.822Z,93977.78
2018-06-28T09:21:03.209Z,93969.99
2018-06-28T09:23:32.660Z,93972.53
2018-06-28T09:26:02.109Z,93986.33
2018-06-28T09:28:31.954Z,93979.56
2018-06-28T09:31:01.525Z,93974.46
2018-06-28T09:33:33.207Z,93968.41
2018-06-28T09:36:03.551Z,93967.42
2018-06-28T09:38:33.944Z,93974.58
2018-06-28T09:41:03.453Z,93968.17
2018-06-28T09:43:33.865Z,93960.59
2018-06-28T09:46:03.279Z,93965.95
2018-06-28T09:48:35.374Z,93961.14
2018-06-28T09:51:04.710Z,93971.53
2018-06-28T09:53:34.116Z,93965.25
2018-06-28T09:56:04.544Z,93964.10
2018-06-28T09:58:33.992Z,93968.73
2018-06-28T10:01:05.216Z,93958.41
2018-06-28T10:03:35.473Z,93958.09
2018-06-28T10:06:07.007Z,93957.34
2018-06-28T10:08:42.074Z,93956.91
2018-06-28T10:11:11.565Z,93967.14
2018-06-28T10:13:41.020Z,93970.19
2018-06-28T10:16:10.687Z,93964.80
2018-06-28T10:18:41.742Z,93969.07
2018-06-28T10:21:11.150Z,93964.23
2018-06-28T10:23:40.500Z,93970.18
2018-06-28T10:26:09.875Z,93974.25
2018-06-28T10:28:39.227Z,93970.61
2018-06-28T10:31:08.597Z,93983.08
2018-06-28T10:33:39.168Z,93980.08
2018-06-28T10:36:08.700Z,93982.77
2018-06-28T10:38:39.698Z,93981.89
2018-06-28T10:41:10.324Z,93986.00
2018-06-28T10:43:40.236Z,93983.23
2018-06-28T10:46:10.458Z,93978.06
2018-06-28T10:48:39.831Z,93977.14
2018-06-28T10:51:09.207Z,93975.28
2018-06-28T10:53:38.527Z,93973.00
2018-06-28T10:56:08.606Z,93971.64
2018-06-28T10:58:38.168Z,93974.88
2018-06-28T11:01:08.054Z,93975.36
2018-06-28T11:03:38.037Z,93975.89
2018-06-28T11:06:08.247Z,93970.05
2018-06-28T11:08:37.642Z,93966.30
2018-06-28T11:11:07.264Z,93966.51
2018-06-28T11:13:36.519Z,93978.70
2018-06-28T11:16:05.958Z,93968.78
2018-06-28T11:18:36.012Z,93969.33
2018-06-28T11:21:05.560Z,93972.07
2018-06-28T11:23:35.001Z,93974.48
2018-06-28T11:26:06.223Z,93972.38
2018-06-28T11:28:35.519Z,93983.07
2018-06-28T11:31:04.971Z,93973.92
2018-06-28T11:33:35.608Z,93967.70
2018-06-28T11:36:05.056Z,93969.80
2018-06-28T11:38:36.438Z,93965.67
2018-06-28T11:41:05.983Z,93963.55
2018-06-28T11:43:35.579Z,93962.36
2018-06-28T11:46:06.975Z,93967.71
2018-06-28T11:48:36.322Z,93970.51
2018-06-28T11:51:07.896Z,93965.61
2018-06-28T11:53:37.291Z,93968.47
2018-06-28T11:56:07.211Z,93974.24
2018-06-28T11:58:36.983Z,93972.06
2018-06-28T12:01:06.484Z,93972.84
2018-06-28T12:03:36.083Z,93969.59
2018-06-28T12:06:05.952Z,93969.83
2018-06-28T12:08:35.330Z,93967.38
2018-06-28T12:11:04.909Z,93968.72
2018-06-28T12:13:35.740Z,93964.34
2018-06-28T12:16:05.588Z,93960.77
2018-06-28T12:18:34.692Z,93958.03
2018-06-28T12:21:05.545Z,93961.34
2018-06-28T12:23:35.980Z,93961.53
2018-06-28T12:26:05.415Z,93960.42
2018-06-28T12:28:34.585Z,93957.16
2018-06-28T12:31:04.099Z,93952.50
2018-06-28T12:33:35.533Z,93955.47
2018-06-28T12:36:05.159Z,93955.86
2018-06-28T12:38:34.838Z,93957.52
2018-06-28T12:41:04.271Z,93959.11
2018-06-28T12:43:33.780Z,93952.31
2018-06-28T12:46:03.811Z,93958.22
2018-06-28T12:48:34.582Z,93960.23
2018-06-28T12:51:04.068Z,93956.85
2018-06-28T12:53:33.775Z,93948.82
2018-06-28T12:56:36.970Z,93952.94
2018-06-28T12:59:08.060Z,93958.46
2018-06-28T13:01:37.581Z,93961.22
2018-06-28T13:04:06.973Z,93957.56
2018-06-28T13:06:38.294Z,93960.99
2018-06-28T13:09:18.582Z,93967.09
2018-06-28T13:11:48.496Z,93966.22
2018-06-28T13:14:18.971Z,93971.18
2018-06-28T13:16:49.864Z,93969.78
2018-06-28T13:19:19.225Z,93974.15
2018-06-28T13:21:50.043Z,93975.38
2018-06-28T13:24:20.699Z,93979.35
2018-06-28T13:26:49.942Z,93980.76
2018-06-28T13:29:19.277Z,93976.05
2018-06-28T13:31:50.402Z,93980.59
2018-06-28T13:34:19.828Z,93975.48
2018-06-28T13:36:49.848Z,93975.06
2018-06-28T13:39:19.786Z,93972.86
2018-06-28T13:41:49.275Z,93978.48
2018-06-28T13:44:18.919Z,93976.23
2018-06-28T13:46:49.561Z,93980.20
2018-06-28T13:49:18.921Z,93972.77
2018-06-28T13:51:48.343Z,93976.31
2018-06-28T13:54:19.770Z,93970.55
2018-06-28T13:56:50.182Z,93960.94
2018-06-28T13:59:19.513Z,93962.61
2018-06-28T14:01:48.992Z,93961.77
2018-06-28T14:04:18.931Z,93967.54
2018-06-28T14:06:48.268Z,93963.19
2018-06-28T14:09:17.310Z,93958.20
2018-06-28T14:11:46.384Z,93955.20
2018-06-28T14:14:15.386Z,93952.16
2018-06-28T14:16:44.554Z,93949.50
2018-06-28T14:19:13.633Z,93946.92
2018-06-28T14:21:42.752Z,93938.83
2018-06-28T14:24:12.190Z,93939.41
2018-06-28T14:26:41.635Z,93932.37
2018-06-28T14:29:11.012Z,93930.97
2018-06-28T14:31:40.183Z,93933.34
2018-06-28T14:34:09.937Z,93941.70
2018-06-28T14:36:39.060Z,93940.86
2018-06-28T14:39:09.761Z,93939.59
2018-06-28T14:41:39.192Z,93942.67
2018-06-28T14:44:09.166Z,93952.86
2018-06-28T14:46:38.524Z,93952.23
2018-06-28T14:49:08.866Z,93954.07
2018-06-28T14:51:38.838Z,93950.99
2018-06-28T14:54:07.950Z,93954.59
2018-06-28T14:56:38.381Z,93955.91
2018-06-28T14:59:07.499Z,93956.95
2018-06-28T15:01:36.651Z,93957.44
2018-06-28T15:04:06.395Z,93961.09
2018-06-28T15:06:37.224Z,93961.55
2018-06-28T15:09:10.359Z,93960.28
2018-06-28T15:11:39.639Z,93965.02
2018-06-28T15:14:08.746Z,93973.09
2018-06-28T15:16:38.175Z,93968.58
2018-06-28T15:19:08.173Z,93968.91
2018-06-28T15:21:37.999Z,93967.81
2018-06-28T15:24:07.232Z,93966.53
2018-06-28T15:26:36.781Z,93967.84
2018-06-28T15:29:06.234Z,93971.73
2018-06-28T15:31:35.887Z,93975.76
2018-06-28T15:34:05.854Z,93970.95
2018-06-28T15:36:35.839Z,93969.44
2018-06-28T15:39:07.520Z,93971.52
2018-06-28T15:41:37.878Z,93965.19
2018-06-28T15:44:07.277Z,93964.98
2018-06-28T15:46:36.846Z,93962.95
2018-06-28T15:49:06.496Z,93969.48
2018-06-28T15:51:36.020Z,93966.50
2018-06-28T15:54:05.703Z,93960.28
2018-06-28T15:56:35.025Z,93953.55
2018-06-28T15:59:04.842Z,93951.22
2018-06-28T16:01:34.283Z,93960.59
2018-06-28T16:04:03.916Z,93950.95
2018-06-28T16:06:33.606Z,93953.05
2018-06-28T16:09:02.886Z,93962.17
2018-06-28T16:11:32.833Z,93954.69
2018-06-28T16:14:02.358Z,93953.84
2018-06-28T16:16:31.641Z,93959.16
2018-06-28T16:19:00.835Z,93957.03
2018-06-28T16:21:29.943Z,93955.69
2018-06-28T16:23:59.231Z,93948.31
2018-06-28T16:26:28.476Z,93949.63
2018-06-28T16:28:57.679Z,93953.30
2018-06-28T16:31:28.678Z,93962.98
2018-06-28T16:33:58.084Z,93959.84
2018-06-28T16:36:27.535Z,93964.56
2018-06-28T16:38:58.405Z,93964.56
2018-06-28T16:41:27.881Z,93972.47
2018-06-28T16:43:57.288Z,93977.71
2018-06-28T16:46:26.837Z,93985.79
2018-06-28T16:48:56.285Z,93975.55
2018-06-28T16:51:25.800Z,93980.45
2018-06-28T16:53:55.290Z,93983.84
2018-06-28T16:56:24.834Z,93986.72
2018-06-28T16:58:54.233Z,93982.53
2018-06-28T17:01:23.772Z,93985.64
2018-06-28T17:03:53.651Z,93991.62
2018-06-28T17:06:23.068Z,93987.42
2018-06-28T17:08:53.340Z,93993.64
2018-06-28T17:11:22.953Z,93994.41
2018-06-28T17:13:53.568Z,93991.57
2018-06-28T17:16:23.366Z,93990.22
2018-06-28T17:18:53.035Z,93986.04
2018-06-28T17:21:22.559Z,93989.38
2018-06-28T17:23:52.035Z,93988.07
2018-06-28T17:26:22.605Z,93988.07
2018-06-28T17:28:52.411Z,93983.60
2018-06-28T17:31:21.987Z,93985.20
2018-06-28T17:33:52.437Z,93988.86
2018-06-28T17:36:21.778Z,93986.53
2018-06-28T17:38:51.210Z,93989.13
2018-06-28T17:41:20.579Z,93987.81
2018-06-28T17:43:51.023Z,93986.27
2018-06-28T17:46:20.454Z,93983.10
2018-06-28T17:48:50.079Z,93989.89
2018-06-28T17:51:20.281Z,93992.26
2018-06-28T17:53:50.029Z,93993.84
2018-06-28T17:56:19.877Z,93990.95
2018-06-28T17:58:50.450Z,93995.94
2018-06-28T18:01:20.689Z,93990.41
2018-06-28T18:03:50.791Z,93991.45
2018-06-28T18:06:20.844Z,93988.50
2018-06-28T18:08:50.501Z,93992.38
2018-06-28T18:11:20.786Z,93990.06
2018-06-28T18:13:50.385Z,93994.01
2018-06-28T18:16:20.235Z,93998.45
2018-06-28T18:18:49.962Z,94004.96
2018-06-28T18:21:19.599Z,93997.06
2018-06-28T18:23:49.604Z,94003.87
2018-06-28T18:26:19.483Z,93999.38
2018-06-28T18:28:50.367Z,94006.97
2018-06-28T18:31:23.782Z,94002.27
2018-06-28T18:33:54.257Z,94008.03
2018-06-28T18:36:24.052Z,94010.89
2018-06-28T18:38:54.661Z,94005.36
2018-06-28T18:41:24.311Z,94004.06
2018-06-28T18:43:53.712Z,94008.80
2018-06-28T18:46:23.582Z,94006.67
2018-06-28T18:48:55.274Z,94011.27
2018-06-28T18:51:24.903Z,94007.83
2018-06-28T18:53:54.513Z,94002.11
2018-06-28T18:56:26.014Z,94003.88
2018-06-28T18:58:55.609Z,94006.22
2018-06-28T19:01:25.129Z,94004.36
2018-06-28T19:03:56.114Z,94005.61
2018-06-28T19:06:25.650Z,94008.77
2018-06-28T19:08:55.231Z,94009.80
2018-06-28T19:11:25.351Z,94018.95
2018-06-28T19:14:00.180Z,94022.59
2018-06-28T19:16:36.257Z,94024.94
2018-06-28T19:19:09.005Z,94030.72
2018-06-28T19:21:43.554Z,94023.15
2018-06-28T19:24:14.690Z,94022.11
2018-06-28T19:26:44.634Z,94026.09
2018-06-28T19:29:21.370Z,94026.62
2018-06-28T19:31:57.631Z,94024.27
2018-06-28T19:34:28.282Z,94018.50
2018-06-28T19:36:58.800Z,94024.24
2018-06-28T19:39:35.126Z,94024.24
2018-06-28T19:42:10.452Z,94027.58
2018-06-28T19:44:40.381Z,94032.50
2018-06-28T19:47:09.755Z,94033.81
2018-06-28T19:49:44.443Z,94035.88
2018-06-28T19:52:19.084Z,94031.95
2018-06-28T19:54:48.651Z,94037.97
2018-06-28T19:57:18.152Z,94043.20
2018-06-28T19:59:47.638Z,94047.43
2018-06-28T20:02:22.431Z,94055.27
2018-06-28T20:04:52.880Z,94055.52
2018-06-28T20:07:22.460Z,94055.96
2018-06-28T20:09:52.819Z,94056.52
2018-06-28T20:12:28.759Z,94064.91
2018-06-28T20:17:07.523Z,94063.05
2018-06-28T20:19:41.777Z,94068.71
2018-06-28T20:22:11.774Z,94073.97
2018-06-28T20:24:41.242Z,94075.88
2018-06-28T20:27:15.900Z,94075.05
2018-06-28T20:29:50.338Z,94082.64
2018-06-28T20:32:24.865Z,94079.75
2018-06-28T20:34:54.653Z,94088.86
2018-06-28T20:37:24.177Z,94096.35
2018-06-28T20:39:53.484Z,94085.35
2018-06-28T20:42:22.935Z,94091.41
2018-06-28T20:44:52.401Z,94079.64
2018-06-28T20:47:22.129Z,94084.88
2018-06-28T20:49:51.768Z,94079.92
2018-06-28T20:52:21.071Z,94071.56
2018-06-28T20:54:50.332Z,94074.22
2018-06-28T20:57:19.816Z,94075.80
2018-06-28T20:59:49.157Z,94076.20
2018-06-28T21:02:19.467Z,94078.58
2018-06-28T21:04:48.977Z,94072.56
2018-06-28T21:07:18.345Z,94074.18
2018-06-28T21:09:48.568Z,94081.78
2018-06-28T21:12:19.437Z,94081.78
2018-06-28T21:14:49.183Z,94080.23
2018-06-28T21:17:18.774Z,94075.25
2018-06-28T21:19:48.422Z,94075.48
2018-06-28T21:22:17.985Z,94079.88
2018-06-28T21:24:47.435Z,94078.02
2018-06-28T21:27:16.843Z,94075.00
2018-06-28T21:29:46.938Z,94077.14
2018-06-28T21:32:16.239Z,94081.68
2018-06-28T21:34:47.018Z,94082.61
2018-06-28T21:37:16.452Z,94079.44
2018-06-28T21:39:45.918Z,94080.20
2018-06-28T21:42:15.771Z,94080.20
2018-06-28T21:44:45.124Z,94075.97
2018-06-28T21:47:15.073Z,94072.48
2018-06-28T21:49:44.658Z,94074.07
2018-06-28T21:52:14.051Z,94079.81
2018-06-28T21:54:43.399Z,94079.33
2018-06-28T21:57:12.733Z,94082.22
2018-06-28T21:59:42.202Z,94083.80
2018-06-28T22:02:11.620Z,94068.64
2018-06-28T22:04:40.761Z,94067.27
2018-06-28T22:07:11.155Z,94072.88
2018-06-28T22:09:41.014Z,94080.88
2018-06-28T22:12:10.539Z,94074.23
2018-06-28T22:14:39.997Z,94073.95
2018-06-28T22:17:09.438Z,94072.41
2018-06-28T22:19:38.853Z,94069.52
2018-06-28T22:22:08.522Z,94062.71
2018-06-28T22:24:38.260Z,94061.95
2018-06-28T22:27:07.698Z,94065.64
2018-06-28T22:29:36.940Z,94060.41
2018-06-28T22:32:06.307Z,94063.30
2018-06-28T22:34:35.595Z,94066.44
2018-06-28T22:37:04.937Z,94062.00
2018-06-28T22:39:34.753Z,94059.11
2018-06-28T22:42:04.145Z,94054.44
2018-06-28T22:44:33.388Z,94058.08
2018-06-28T22:47:03.805Z,94050.20
2018-06-28T22:49:32.884Z,94047.63
2018-06-28T22:52:01.869Z,94054.67
2018-06-28T22:54:31.410Z,94053.38
2018-06-28T22:57:00.533Z,94048.70
2018-06-28T22:59:29.998Z,94049.92
2018-06-28T23:01:59.295Z,94042.61
2018-06-28T23:04:28.755Z,94039.95
2018-06-28T23:06:58.013Z,94036.34
2018-06-28T23:09:27.311Z,94036.28
2018-06-28T23:11:57.034Z,94037.17
2018-06-28T23:14:26.203Z,94038.13
2018-06-28T23:16:55.600Z,94042.61
2018-06-28T23:19:24.980Z,94047.04
2018-06-28T23:21:54.800Z,94050.45
2018-06-28T23:24:24.207Z,94044.19
2018-06-28T23:26:53.558Z,94054.02
2018-06-28T23:29:22.851Z,94040.23
2018-06-28T23:31:52.298Z,94039.68
2018-06-28T23:34:21.541Z,94044.42
2018-06-28T23:36:51.001Z,94044.98
2018-06-28T23:39:20.464Z,94047.52
2018-06-28T23:41:49.790Z,94041.50
2018-06-28T23:44:19.180Z,94033.66
2018-06-28T23:46:48.467Z,94029.20
2018-06-28T23:49:17.856Z,94022.08
2018-06-28T23:51:47.960Z,94026.23
2018-06-28T23:54:17.235Z,94019.98
2018-06-28T23:56:46.580Z,94027.86
2018-06-28T23:59:16.715Z,94028.68
